createdAt,value
2018-12-11T00:00:33.855Z,95762.03
2018-12-11T00:03:04.583Z,95759.17
2018-12-11T00:05:32.981Z,95770.37
2018-12-11T00:08:03.725Z,95767.81
2018-12-11T00:10:32.240Z,95772.71
2018-12-11T00:13:00.693Z,95769.16
2018-12-11T00:15:29.103Z,95776.14
2018-12-11T00:17:57.636Z,95767.51
2018-12-11T00:20:27.439Z,95773.98
2018-12-11T00:22:56.093Z,95772.70
2018-12-11T00:25:24.548Z,95775.16
2018-12-11T00:27:52.982Z,95776.91
2018-12-11T00:30:21.392Z,95782.66
2018-12-11T00:32:49.816Z,95783.17
2018-12-11T00:35:18.223Z,95786.83
2018-12-11T00:37:46.629Z,95778.45
2018-12-11T00:40:15.229Z,95781.70
2018-12-11T00:42:43.669Z,95775.48
2018-12-11T00:45:12.304Z,95770.55
2018-12-11T00:47:40.752Z,95771.69
2018-12-11T00:50:09.316Z,95766.45
2018-12-11T00:52:37.788Z,95773.69
2018-12-11T00:55:06.192Z,95779.25
2018-12-11T00:57:34.622Z,95772.59
2018-12-11T01:00:05.648Z,95780.28
2018-12-11T01:02:34.079Z,95769.78
2018-12-11T01:05:04.546Z,95777.83
2018-12-11T01:07:32.966Z,95781.44
2018-12-11T01:10:03.632Z,95771.16
2018-12-11T01:12:32.061Z,95778.59
2018-12-11T01:15:00.456Z,95781.77
2018-12-11T01:17:28.883Z,95781.33
2018-12-11T01:19:57.317Z,95782.72
2018-12-11T01:22:25.799Z,95778.87
2018-12-11T01:24:54.242Z,95784.51
2018-12-11T01:27:22.724Z,95791.55
2018-12-11T01:29:51.115Z,95792.84
2018-12-11T01:32:19.557Z,95798.72
2018-12-11T01:34:47.953Z,95800.95
2018-12-11T01:37:16.389Z,95803.20
2018-12-11T01:39:44.811Z,95808.02
2018-12-11T01:42:13.266Z,95809.73
2018-12-11T01:44:41.656Z,95808.45
2018-12-11T01:47:10.103Z,95807.02
2018-12-11T01:49:38.508Z,95806.33
2018-12-11T01:52:06.952Z,95810.06
2018-12-11T01:54:35.347Z,95805.75
2018-12-11T01:57:05.148Z,95807.72
2018-12-11T01:59:33.550Z,95798.83
2018-12-11T02:02:04.480Z,95805.45
2018-12-11T02:04:32.881Z,95805.49
2018-12-11T02:07:03.657Z,95799.60
2018-12-11T02:09:32.058Z,95804.86
2018-12-11T02:12:00.480Z,95799.67
2018-12-11T02:14:28.889Z,95791.77
2018-12-11T02:16:57.316Z,95789.72
2018-12-11T02:19:25.721Z,95787.75
2018-12-11T02:21:54.137Z,95787.23
2018-12-11T02:24:22.541Z,95788.16
2018-12-11T02:26:51.088Z,95796.08
2018-12-11T02:29:19.476Z,95780.57
2018-12-11T02:31:47.894Z,95785.55
2018-12-11T02:34:16.290Z,95788.91
2018-12-11T02:36:44.727Z,95795.75
2018-12-11T02:39:13.206Z,95775.02
2018-12-11T02:41:41.809Z,95785.00
2018-12-11T02:44:10.351Z,95783.22
2018-12-11T02:46:38.773Z,95776.81
2018-12-11T02:49:07.170Z,95781.60
2018-12-11T02:51:35.631Z,95781.16
2018-12-11T02:54:05.869Z,95787.21
2018-12-11T02:56:34.317Z,95779.39
2018-12-11T02:59:05.293Z,95776.59
2018-12-11T03:01:33.729Z,95784.42
2018-12-11T03:04:04.529Z,95780.05
2018-12-11T03:06:32.980Z,95781.16
2018-12-11T03:09:03.595Z,95786.87
2018-12-11T03:11:32.017Z,95784.09
2018-12-11T03:14:00.428Z,95786.39
2018-12-11T03:16:28.862Z,95783.80
2018-12-11T03:18:57.260Z,95789.35
2018-12-11T03:21:25.696Z,95801.56
2018-12-11T03:23:54.099Z,95797.57
2018-12-11T03:26:22.510Z,95797.27
2018-12-11T03:28:50.939Z,95790.14
2018-12-11T03:31:19.345Z,95786.47
2018-12-11T03:33:47.772Z,95785.42
2018-12-11T03:36:16.165Z,95787.58
2018-12-11T03:38:44.583Z,95779.63
2018-12-11T03:41:13.016Z,95780.73
2018-12-11T03:43:41.458Z,95790.38
2018-12-11T03:46:09.902Z,95794.63
2018-12-11T03:48:38.448Z,95795.83
2018-12-11T03:51:06.898Z,95800.84
2018-12-11T03:53:35.330Z,95812.16
2018-12-11T03:56:05.131Z,95809.59
2018-12-11T03:58:33.661Z,95807.59
2018-12-11T04:01:04.562Z,95798.22
2018-12-11T04:03:33.089Z,95804.77
2018-12-11T04:06:03.680Z,95809.16
2018-12-11T04:08:32.085Z,95810.99
2018-12-11T04:11:00.572Z,95814.25
2018-12-11T04:13:28.975Z,95817.25
2018-12-11T04:15:57.373Z,95807.19
2018-12-11T04:18:25.796Z,95812.38
2018-12-11T04:20:54.219Z,95809.48
2018-12-11T04:23:22.627Z,95818.11
2018-12-11T04:25:51.057Z,95807.55
2018-12-11T04:28:19.589Z,95808.96
2018-12-11T04:30:48.151Z,95808.02
2018-12-11T04:33:16.544Z,95805.31
2018-12-11T04:35:45.005Z,95807.79
2018-12-11T04:38:13.504Z,95814.19
2018-12-11T04:40:42.004Z,95817.92
2018-12-11T04:43:10.411Z,95815.80
2018-12-11T04:45:38.833Z,95815.80
2018-12-11T04:48:07.240Z,95814.41
2018-12-11T04:50:35.667Z,95826.55
2018-12-11T04:53:05.097Z,95820.22
2018-12-11T04:55:33.612Z,95810.68
2018-12-11T04:58:04.576Z,95823.23
2018-12-11T05:00:33.004Z,95828.79
2018-12-11T05:03:03.618Z,95828.79
2018-12-11T05:05:32.025Z,95819.36
2018-12-11T05:08:03.467Z,95829.02
2018-12-11T05:10:31.895Z,95837.47
2018-12-11T05:13:00.279Z,95835.57
2018-12-11T05:15:28.707Z,95829.17
2018-12-11T05:17:57.087Z,95826.34
2018-12-11T05:20:25.495Z,95826.79
2018-12-11T05:22:53.888Z,95829.19
2018-12-11T05:25:22.290Z,95820.67
2018-12-11T05:27:50.676Z,95832.33
2018-12-11T05:30:19.085Z,95834.92
2018-12-11T05:32:47.495Z,95835.19
2018-12-11T05:35:15.904Z,95834.82
2018-12-11T05:37:44.284Z,95831.16
2018-12-11T05:40:12.683Z,95828.53
2018-12-11T05:42:41.115Z,95818.42
2018-12-11T05:45:09.531Z,95818.29
2018-12-11T05:47:37.904Z,95818.11
2018-12-11T05:50:06.954Z,95822.86
2018-12-11T05:52:35.348Z,95826.72
2018-12-11T05:55:06.016Z,95831.27
2018-12-11T05:57:34.387Z,95829.44
2018-12-11T06:00:08.088Z,95820.25
2018-12-11T06:02:36.468Z,95832.78
2018-12-11T06:05:05.837Z,95842.07
2018-12-11T06:07:34.247Z,95835.84
2018-12-11T06:10:03.615Z,95833.28
2018-12-11T06:12:32.059Z,95842.77
2018-12-11T06:15:00.441Z,95830.47
2018-12-11T06:17:28.876Z,95829.30
2018-12-11T06:19:57.259Z,95825.16
2018-12-11T06:22:25.675Z,95823.14
2018-12-11T06:24:54.067Z,95816.08
2018-12-11T06:27:22.472Z,95820.76
2018-12-11T06:29:50.859Z,95809.48
2018-12-11T06:32:19.267Z,95799.93
2018-12-11T06:34:47.635Z,95799.83
2018-12-11T06:37:16.053Z,95807.61
2018-12-11T06:39:44.432Z,95807.44
2018-12-11T06:42:12.841Z,95809.42
2018-12-11T06:44:41.240Z,95804.56
2018-12-11T06:47:09.661Z,95805.16
2018-12-11T06:49:38.040Z,95820.52
2018-12-11T06:52:06.564Z,95826.47
2018-12-11T06:54:34.940Z,95823.74
2018-12-11T06:57:05.180Z,95827.72
2018-12-11T06:59:33.560Z,95833.78
2018-12-11T07:02:03.658Z,95836.05
2018-12-11T07:04:32.045Z,95835.44
2018-12-11T07:07:00.468Z,95832.86
2018-12-11T07:09:28.845Z,95847.33
2018-12-11T07:11:57.260Z,95843.66
2018-12-11T07:14:25.642Z,95834.37
2018-12-11T07:16:54.073Z,95842.27
2018-12-11T07:19:22.545Z,95836.89
2018-12-11T07:21:50.965Z,95846.11
2018-12-11T07:24:19.352Z,95845.72
2018-12-11T07:26:47.755Z,95847.66
2018-12-11T07:29:16.150Z,95846.09
2018-12-11T07:31:44.564Z,95844.64
2018-12-11T07:34:12.940Z,95844.03
2018-12-11T07:36:41.348Z,95852.65
2018-12-11T07:39:09.743Z,95856.48
2018-12-11T07:41:38.189Z,95861.27
2018-12-11T07:44:06.604Z,95848.89
2018-12-11T07:46:34.991Z,95861.46
2018-12-11T07:49:05.825Z,95882.58
2018-12-11T07:51:34.272Z,95869.78
2018-12-11T07:54:04.649Z,95862.55
2018-12-11T07:56:33.054Z,95879.47
2018-12-11T07:59:03.718Z,95877.95
2018-12-11T08:01:32.120Z,95870.27
2018-12-11T08:04:00.546Z,95871.52
2018-12-11T08:06:28.916Z,95851.09
2018-12-11T08:08:57.336Z,95854.49
2018-12-11T08:11:25.736Z,95853.89
2018-12-11T08:13:54.136Z,95850.49
2018-12-11T08:16:22.647Z,95859.61
2018-12-11T08:18:51.573Z,95846.59
2018-12-11T08:21:19.962Z,95847.80
2018-12-11T08:23:48.371Z,95851.88
2018-12-11T08:26:16.763Z,95858.91
2018-12-11T08:28:45.188Z,95849.09
2018-12-11T08:31:13.571Z,95847.13
2018-12-11T08:33:42.143Z,95851.35
2018-12-11T08:36:10.528Z,95853.41
2018-12-11T08:38:38.956Z,95849.91
2018-12-11T08:41:07.343Z,95856.41
2018-12-11T08:43:35.800Z,95869.61
2018-12-11T08:46:05.831Z,95869.55
2018-12-11T08:48:34.208Z,95865.37
2018-12-11T08:51:05.659Z,95874.05
2018-12-11T08:53:34.041Z,95872.70
2018-12-11T08:56:04.566Z,95873.14
2018-12-11T08:58:33.137Z,95871.86
2018-12-11T09:01:03.387Z,95878.56
2018-12-11T09:03:31.767Z,95884.97
2018-12-11T09:06:00.652Z,95888.84
2018-12-11T09:08:29.024Z,95894.48
2018-12-11T09:10:57.404Z,95896.84
2018-12-11T09:13:25.820Z,95895.47
2018-12-11T09:15:54.213Z,95890.95
2018-12-11T09:18:22.967Z,95889.20
2018-12-11T09:20:51.352Z,95895.50
2018-12-11T09:23:19.760Z,95893.89
2018-12-11T09:25:48.132Z,95893.78
2018-12-11T09:28:16.549Z,95891.45
2018-12-11T09:30:44.936Z,95896.61
2018-12-11T09:33:13.368Z,95893.17
2018-12-11T09:35:41.744Z,95892.05
2018-12-11T09:38:10.141Z,95891.66
2018-12-11T09:40:38.540Z,95893.09
2018-12-11T09:43:06.935Z,95891.30
2018-12-11T09:45:35.475Z,95901.30
2018-12-11T09:48:05.070Z,95892.78
2018-12-11T09:50:33.459Z,95883.20
2018-12-11T09:53:03.707Z,95894.06
2018-12-11T09:55:32.150Z,95895.94
2018-12-11T09:58:00.572Z,95895.67
2018-12-11T10:00:28.963Z,95889.08
2018-12-11T10:02:57.372Z,95898.63
2018-12-11T10:05:25.770Z,95889.44
2018-12-11T10:07:54.219Z,95885.69
2018-12-11T10:10:22.604Z,95894.03
2018-12-11T10:12:50.994Z,95892.14
2018-12-11T10:15:19.416Z,95882.55
2018-12-11T10:17:47.800Z,95892.30
2018-12-11T10:20:16.540Z,95885.56
2018-12-11T10:22:44.929Z,95878.27
2018-12-11T10:25:13.445Z,95886.51
2018-12-11T10:27:41.827Z,95882.04
2018-12-11T10:30:10.880Z,95872.34
2018-12-11T10:32:39.307Z,95880.17
2018-12-11T10:35:08.160Z,95879.58
2018-12-11T10:37:36.609Z,95882.00
2018-12-11T10:40:07.153Z,95887.27
2018-12-11T10:42:35.612Z,95882.73
2018-12-11T10:45:05.756Z,95882.30
2018-12-11T10:47:34.324Z,95876.33
2018-12-11T10:50:06.720Z,95872.75
2018-12-11T10:52:35.463Z,95874.35
2018-12-11T10:55:05.138Z,95871.42
2018-12-11T10:57:33.693Z,95868.23
2018-12-11T11:00:05.912Z,95868.56
2018-12-11T11:02:36.324Z,95874.28
2018-12-11T11:05:05.408Z,95866.48
2018-12-11T11:07:33.808Z,95867.62
2018-12-11T11:10:07.414Z,95868.28
2018-12-11T11:12:35.800Z,95857.38
2018-12-11T11:15:05.608Z,95855.65
2018-12-11T11:17:33.995Z,95866.99
2018-12-11T11:20:04.604Z,95865.27
2018-12-11T11:22:32.975Z,95868.79
2018-12-11T11:25:03.641Z,95870.84
2018-12-11T11:27:32.103Z,95869.88
2018-12-11T11:30:00.580Z,95869.05
2018-12-11T11:32:29.144Z,95875.02
2018-12-11T11:34:57.520Z,95861.47
2018-12-11T11:37:25.948Z,95878.94
2018-12-11T11:39:54.335Z,95873.53
2018-12-11T11:42:22.940Z,95867.78
2018-12-11T11:44:51.979Z,95866.48
2018-12-11T11:47:20.392Z,95861.59
2018-12-11T11:49:48.828Z,95859.81
2018-12-11T11:52:17.295Z,95860.00
2018-12-11T11:54:46.123Z,95851.03
2018-12-11T11:57:14.584Z,95849.13
2018-12-11T11:59:43.631Z,95852.46
2018-12-11T12:02:12.058Z,95845.22
2018-12-11T12:04:40.446Z,95850.97
2018-12-11T12:07:09.135Z,95852.67
2018-12-11T12:09:40.794Z,95840.75
2018-12-11T12:12:09.211Z,95843.02
2018-12-11T12:14:37.640Z,95845.42
2018-12-11T12:17:06.166Z,95845.67
2018-12-11T12:19:34.599Z,95827.42
2018-12-11T12:22:05.280Z,95827.33
2018-12-11T12:24:33.729Z,95832.78
2018-12-11T12:27:04.348Z,95837.72
2018-12-11T12:29:32.772Z,95837.09
2018-12-11T12:32:04.391Z,95840.20
2018-12-11T12:34:32.812Z,95844.45
2018-12-11T12:37:04.325Z,95847.13
2018-12-11T12:39:32.750Z,95841.78
2018-12-11T12:44:35.023Z,95854.44
2018-12-11T12:47:06.580Z,95853.16
2018-12-11T12:49:36.951Z,95852.83
2018-12-11T12:52:06.719Z,95863.84
2018-12-11T12:54:35.100Z,95850.76
2018-12-11T12:57:07.213Z,95844.86
2018-12-11T12:59:35.609Z,95855.79
2018-12-11T13:02:05.272Z,95850.60
2018-12-11T13:04:39.934Z,95852.80
2018-12-11T13:07:08.466Z,95845.72
2018-12-11T13:09:36.900Z,95848.10
2018-12-11T13:12:08.975Z,95843.68
2018-12-11T13:14:37.396Z,95848.61
2018-12-11T13:17:06.504Z,95843.53
2018-12-11T13:19:35.463Z,95851.44
2018-12-11T13:22:07.479Z,95854.06
2018-12-11T13:24:35.971Z,95853.16
2018-12-11T13:27:08.079Z,95852.02
2018-12-11T13:29:38.945Z,95846.39
2018-12-11T13:32:07.381Z,95852.57
2018-12-11T13:34:36.056Z,95846.83
2018-12-11T13:37:05.827Z,95844.67
2018-12-11T13:39:34.283Z,95844.86
2018-12-11T13:42:05.270Z,95852.28
2018-12-11T13:44:33.865Z,95857.73
2018-12-11T13:47:04.744Z,95855.36
2018-12-11T13:49:33.179Z,95857.80
2018-12-11T13:52:03.498Z,95853.49
2018-12-11T13:54:32.187Z,95860.55
2018-12-11T13:57:00.812Z,95862.34
2018-12-11T13:59:29.445Z,95854.10
2018-12-11T14:01:57.944Z,95860.98
2018-12-11T14:04:26.403Z,95861.86
2018-12-11T14:06:55.195Z,95861.75
2018-12-11T14:09:28.712Z,95862.88
2018-12-11T14:11:57.257Z,95859.30
2018-12-11T14:14:25.643Z,95855.34
2018-12-11T14:16:54.324Z,95854.36
2018-12-11T14:19:23.024Z,95856.23
2018-12-11T14:21:51.460Z,95853.49
2018-12-11T14:24:20.292Z,95850.93
2018-12-11T14:26:49.248Z,95848.07
2018-12-11T14:29:18.056Z,95851.44
2018-12-11T14:31:46.459Z,95850.85
2018-12-11T14:34:14.833Z,95846.97
2018-12-11T14:36:43.619Z,95844.96
2018-12-11T14:39:15.067Z,95846.05
2018-12-11T14:41:43.501Z,95852.64
2018-12-11T14:44:12.000Z,95842.15
2018-12-11T14:46:40.524Z,95841.16
2018-12-11T14:49:08.916Z,95842.22
2018-12-11T14:51:37.749Z,95847.41
2018-12-11T14:54:06.224Z,95859.38
2018-12-11T14:56:34.665Z,95844.77
2018-12-11T14:59:05.408Z,95849.34
2018-12-11T15:01:33.865Z,95842.74
2018-12-11T15:04:04.549Z,95847.93
2018-12-11T15:06:33.015Z,95844.36
2018-12-11T15:09:06.632Z,95850.17
2018-12-11T15:11:35.179Z,95850.11
2018-12-11T15:14:06.376Z,95851.86
2018-12-11T15:16:35.120Z,95844.51
2018-12-11T15:19:05.088Z,95844.51
2018-12-11T15:21:33.463Z,95843.45
2018-12-11T15:24:05.351Z,95848.70
2018-12-11T15:26:33.747Z,95850.86
2018-12-11T15:29:05.268Z,95848.30
2018-12-11T15:31:33.653Z,95856.83
2018-12-11T15:34:04.383Z,95858.61
2018-12-11T15:36:32.802Z,95859.83
2018-12-11T15:39:03.497Z,95862.14
2018-12-11T15:41:31.884Z,95867.13
2018-12-11T15:44:00.332Z,95863.56
2018-12-11T15:46:28.757Z,95866.62
2018-12-11T15:48:57.148Z,95872.87
2018-12-11T15:51:25.739Z,95868.27
2018-12-11T15:53:54.143Z,95863.40
2018-12-11T15:56:22.587Z,95869.53
2018-12-11T15:58:50.975Z,95861.89
2018-12-11T16:01:19.420Z,95863.81
2018-12-11T16:03:47.796Z,95867.98
2018-12-11T16:06:16.251Z,95876.98
2018-12-11T16:08:44.630Z,95880.78
2018-12-11T16:11:13.075Z,95872.42
2018-12-11T16:13:41.468Z,95881.01
2018-12-11T16:16:09.909Z,95872.01
2018-12-11T16:18:38.306Z,95873.66
2018-12-11T16:21:06.779Z,95881.84
2018-12-11T16:23:36.209Z,95874.25
2018-12-11T16:26:05.089Z,95877.28
2018-12-11T16:28:33.516Z,95871.39
2018-12-11T16:31:03.647Z,95881.64
2018-12-11T16:33:32.083Z,95890.90
2018-12-11T16:36:00.459Z,95882.63
2018-12-11T16:38:28.884Z,95879.94
2018-12-11T16:40:57.264Z,95884.58
2018-12-11T16:43:26.028Z,95884.55
2018-12-11T16:45:54.423Z,95886.38
2018-12-11T16:48:23.104Z,95885.70
2018-12-11T16:50:51.488Z,95890.72
2018-12-11T16:53:19.891Z,95886.10
2018-12-11T16:55:48.343Z,95890.95
2018-12-11T16:58:16.740Z,95883.20
2018-12-11T17:00:45.171Z,95880.36
2018-12-11T17:03:13.945Z,95889.69
2018-12-11T17:05:42.481Z,95888.08
2018-12-11T17:08:10.890Z,95887.04
2018-12-11T17:10:40.036Z,95892.16
2018-12-11T17:13:08.810Z,95898.22
2018-12-11T17:15:38.330Z,95891.66
2018-12-11T17:18:06.988Z,95901.22
2018-12-11T17:20:36.880Z,95895.59
2018-12-11T17:23:05.437Z,95892.49
2018-12-11T17:25:33.965Z,95899.27
2018-12-11T17:28:07.024Z,95893.44
2018-12-11T17:30:35.843Z,95898.63
2018-12-11T17:33:05.168Z,95894.65
2018-12-11T17:35:33.635Z,95898.83
2018-12-11T17:38:05.382Z,95896.93
2018-12-11T17:40:33.823Z,95899.56
2018-12-11T17:43:04.749Z,95893.20
2018-12-11T17:45:33.360Z,95905.91
2018-12-11T17:48:05.389Z,95892.86
2018-12-11T17:50:34.160Z,95894.23
2018-12-11T17:53:04.086Z,95896.02
2018-12-11T17:55:33.476Z,95898.98
2018-12-11T17:58:03.679Z,95897.03
2018-12-11T18:00:32.212Z,95893.97
2018-12-11T18:03:00.723Z,95900.00
2018-12-11T18:05:29.183Z,95894.30
2018-12-11T18:07:57.673Z,95897.03
2018-12-11T18:10:26.532Z,95908.89
2018-12-11T18:12:54.980Z,95909.84
2018-12-11T18:15:23.408Z,95902.89
2018-12-11T18:17:51.829Z,95904.17
2018-12-11T18:20:20.292Z,95900.70
2018-12-11T18:22:48.702Z,95899.31
2018-12-11T18:25:17.098Z,95904.88
2018-12-11T18:27:45.552Z,95903.09
2018-12-11T18:30:13.973Z,95900.20
2018-12-11T18:32:42.412Z,95894.65
2018-12-11T18:35:13.528Z,95891.25
2018-12-11T18:37:41.956Z,95885.95
2018-12-11T18:40:10.961Z,95895.09
2018-12-11T18:42:39.396Z,95896.70
2018-12-11T18:45:08.796Z,95889.76
2018-12-11T18:47:37.277Z,95902.66
2018-12-11T18:50:06.433Z,95908.13
2018-12-11T18:52:34.862Z,95903.44
2018-12-11T18:55:05.480Z,95904.38
2018-12-11T18:57:34.015Z,95905.16
2018-12-11T19:00:04.517Z,95899.77
2018-12-11T19:02:32.933Z,95898.84
2018-12-11T19:05:03.896Z,95906.85
2018-12-11T19:07:32.312Z,95899.50
2018-12-11T19:10:00.716Z,95901.02
2018-12-11T19:12:29.158Z,95901.56
2018-12-11T19:14:57.568Z,95896.08
2018-12-11T19:17:25.970Z,95897.95
2018-12-11T19:19:54.400Z,95895.23
2018-12-11T19:22:22.859Z,95895.84
2018-12-11T19:24:53.946Z,95887.38
2018-12-11T19:27:22.341Z,95889.27
2018-12-11T19:29:50.775Z,95889.93
2018-12-11T19:32:19.786Z,95887.91
2018-12-11T19:34:48.166Z,95884.98
2018-12-11T19:37:16.643Z,95883.81
2018-12-11T19:39:45.275Z,95884.48
2018-12-11T19:42:13.676Z,95883.27
2018-12-11T19:44:42.111Z,95890.44
2018-12-11T19:47:10.547Z,95887.61
2018-12-11T19:49:39.000Z,95887.14
2018-12-11T19:52:07.595Z,95880.53
2018-12-11T19:54:36.060Z,95875.95
2018-12-11T19:57:05.784Z,95886.13
2018-12-11T19:59:34.403Z,95881.66
2018-12-11T20:02:05.392Z,95879.60
2018-12-11T20:04:34.426Z,95872.63
2018-12-11T20:07:05.919Z,95876.56
2018-12-11T20:09:37.162Z,95883.70
2018-12-11T20:12:05.900Z,95878.45
2018-12-11T20:14:34.360Z,95879.87
2018-12-11T20:17:05.611Z,95866.84
2018-12-11T20:19:34.044Z,95875.59
2018-12-11T20:22:04.987Z,95877.04
2018-12-11T20:24:33.719Z,95872.73
2018-12-11T20:27:05.262Z,95870.15
2018-12-11T20:29:33.956Z,95874.39
2018-12-11T20:32:05.394Z,95872.85
2018-12-11T20:34:34.743Z,95879.95
2018-12-11T20:37:07.037Z,95867.41
2018-12-11T20:39:35.447Z,95867.46
2018-12-11T20:42:07.510Z,95873.27
2018-12-11T20:44:36.133Z,95868.09
2018-12-11T20:47:05.295Z,95871.27
2018-12-11T20:49:33.718Z,95869.63
2018-12-11T20:52:05.321Z,95865.52
2018-12-11T20:54:33.809Z,95862.78
2018-12-11T20:57:04.636Z,95866.22
2018-12-11T20:59:33.061Z,95866.05
2018-12-11T21:02:03.714Z,95864.58
2018-12-11T21:04:32.358Z,95870.59
2018-12-11T21:07:00.769Z,95867.06
2018-12-11T21:09:29.165Z,95866.22
2018-12-11T21:11:57.608Z,95875.08
2018-12-11T21:14:26.140Z,95871.88
2018-12-11T21:16:55.210Z,95871.57
2018-12-11T21:19:23.639Z,95876.47
2018-12-11T21:21:52.165Z,95876.09
2018-12-11T21:24:20.973Z,95861.80
2018-12-11T21:26:49.860Z,95877.84
2018-12-11T21:29:18.300Z,95873.97
2018-12-11T21:31:46.700Z,95877.16
2018-12-11T21:34:15.255Z,95879.13
2018-12-11T21:36:43.655Z,95881.01
2018-12-11T21:39:12.152Z,95883.02
2018-12-11T21:41:40.632Z,95875.27
2018-12-11T21:44:09.740Z,95884.20
2018-12-11T21:46:38.331Z,95876.53
2018-12-11T21:49:07.496Z,95885.56
2018-12-11T21:51:36.229Z,95879.08
2018-12-11T21:54:07.609Z,95885.27
2018-12-11T21:56:36.218Z,95884.50
2018-12-11T21:59:06.468Z,95880.97
2018-12-11T22:01:34.975Z,95879.01
2018-12-11T22:04:10.248Z,95881.77
2018-12-11T22:06:39.381Z,95882.95
2018-12-11T22:09:07.900Z,95887.30
2018-12-11T22:11:36.801Z,95885.25
2018-12-11T22:14:06.015Z,95877.30
2018-12-11T22:16:34.432Z,95880.14
2018-12-11T22:19:06.003Z,95881.39
2018-12-11T22:21:34.648Z,95876.61
2018-12-11T22:24:05.224Z,95870.25
2018-12-11T22:26:33.639Z,95870.38
2018-12-11T22:29:04.688Z,95870.75
2018-12-11T22:31:34.109Z,95870.08
2018-12-11T22:34:06.005Z,95869.64
2018-12-11T22:36:34.412Z,95861.80
2018-12-11T22:39:07.370Z,95866.81
2018-12-11T22:41:36.161Z,95860.48
2018-12-11T22:44:05.871Z,95864.09
2018-12-11T22:46:34.615Z,95861.02
2018-12-11T22:49:05.912Z,95862.30
2018-12-11T22:51:35.076Z,95858.97
2018-12-11T22:54:06.855Z,95869.27
2018-12-11T22:56:35.277Z,95861.63
2018-12-11T22:59:05.064Z,95866.38
2018-12-11T23:01:33.440Z,95864.23
2018-12-11T23:04:03.706Z,95865.19
2018-12-11T23:06:32.103Z,95864.85
2018-12-11T23:09:00.615Z,95861.85
2018-12-11T23:11:29.019Z,95866.38
2018-12-11T23:13:57.400Z,95868.67
2018-12-11T23:16:25.819Z,95865.19
2018-12-11T23:18:54.199Z,95866.41
2018-12-11T23:21:22.614Z,95870.83
2018-12-11T23:23:50.995Z,95873.38
2018-12-11T23:26:19.411Z,95873.15
2018-12-11T23:28:47.800Z,95873.28
2018-12-11T23:31:16.220Z,95870.22
2018-12-11T23:33:44.591Z,95873.35
2018-12-11T23:36:13.007Z,95871.16
2018-12-11T23:38:41.380Z,95875.23
2018-12-11T23:41:09.788Z,95862.98
2018-12-11T23:43:38.159Z,95867.56
2018-12-11T23:46:06.570Z,95867.97
2018-12-11T23:48:34.986Z,95867.05
2018-12-11T23:51:05.838Z,95865.78
2018-12-11T23:53:34.263Z,95865.41
2018-12-11T23:56:06.056Z,95868.34
2018-12-11T23:58:34.451Z,95867.19
